Time;durP1;ratioP1;P1;durP2;ratioP2;P2;SDS_P1;SDS_P2;PMS_P1;PMS_P2;Temp;Humidity;BMP_temperature;BMP_pressure;BME280_temperature;BME280_humidity;BME280_pressure;Samples;Min_cycle;Max_cycle;Signal;HPM_P1;HPM_P2
2021/07/18 00:01:10;;;;;;;0.20;0.20;;;;;;;24.36;56.09;102492.81;5101732;28;20371;-72
2021/07/18 00:03:37;;;;;;;0.15;0.15;;;;;;;24.34;55.96;102495.66;5076825;28;20039;-72
2021/07/18 00:06:02;;;;;;;0.00;0.00;;;;;;;24.21;55.90;102483.81;5103691;28;20054;-72
2021/07/18 00:08:28;;;;;;;0.00;0.00;;;;;;;24.17;55.94;102479.84;5102793;28;20534;-72
2021/07/18 00:10:54;;;;;;;0.13;0.13;;;;;;;24.31;56.01;102500.50;5086601;28;20085;-72
2021/07/18 00:13:20;;;;;;;0.17;0.17;;;;;;;24.21;56.19;102489.97;5101631;28;20040;-72
2021/07/18 00:15:46;;;;;;;0.15;0.15;;;;;;;24.27;56.03;102507.97;5102334;28;20111;-72
2021/07/18 00:18:12;;;;;;;0.10;0.10;;;;;;;24.07;56.07;102478.22;5104175;28;20466;-72
2021/07/18 00:20:37;;;;;;;0.20;0.20;;;;;;;24.09;56.08;102470.06;5103355;28;20039;-72
2021/07/18 00:23:04;;;;;;;0.00;0.00;;;;;;;24.18;56.19;102494.81;5104413;28;20086;-72
2021/07/18 00:25:32;;;;;;;0.20;0.20;;;;;;;24.18;56.25;102495.66;5104684;28;20043;-72
2021/07/18 00:28:01;;;;;;;0.10;0.10;;;;;;;24.22;56.27;102501.47;5104077;28;20377;-72
2021/07/18 00:30:27;;;;;;;0.05;0.05;;;;;;;24.16;56.49;102494.16;5105520;28;20085;-72
2021/07/18 00:32:52;;;;;;;0.17;0.13;;;;;;;24.06;56.48;102476.56;5093365;28;20038;-72
2021/07/18 00:35:18;;;;;;;0.00;0.00;;;;;;;24.06;56.46;102471.22;5086559;28;20040;-72
2021/07/18 00:37:43;;;;;;;0.13;0.13;;;;;;;24.17;56.30;102493.16;5102110;28;20047;-72
2021/07/18 00:40:10;;;;;;;0.00;0.00;;;;;;;24.09;56.46;102481.53;5103241;28;20055;-72
2021/07/18 00:42:36;;;;;;;0.30;0.30;;;;;;;24.18;56.48;102489.50;5104122;28;20169;-72
2021/07/18 00:45:04;;;;;;;0.10;0.10;;;;;;;24.16;56.44;102484.34;5101633;28;20035;-72
2021/07/18 00:47:30;;;;;;;0.20;0.20;;;;;;;23.97;56.48;102452.75;5098719;28;20072;-72
2021/07/18 00:49:57;;;;;;;0.25;0.20;;;;;;;24.14;56.32;102489.00;5085282;28;20126;-72
2021/07/18 00:52:22;;;;;;;0.00;0.00;;;;;;;24.14;56.36;102483.69;5086351;28;20055;-72
2021/07/18 00:54:48;;;;;;;0.13;0.10;;;;;;;24.10;56.66;102477.03;5102068;28;20039;-72
2021/07/18 00:57:14;;;;;;;0.10;0.10;;;;;;;24.00;56.57;102466.56;5102292;28;20054;-72
2021/07/18 00:59:39;;;;;;;0.55;0.28;;;;;;;24.09;56.59;102480.69;5099769;28;20050;-72
2021/07/18 01:02:06;;;;;;;0.10;0.10;;;;;;;24.10;56.51;102480.53;5102634;28;20054;-72
2021/07/18 01:04:32;;;;;;;0.10;0.10;;;;;;;23.68;56.59;102411.53;5101511;28;20052;-72
2021/07/18 01:06:58;;;;;;;0.20;0.20;;;;;;;23.97;56.69;102458.09;5105469;28;20047;-72
2021/07/18 01:09:24;;;;;;;0.05;0.03;;;;;;;23.92;56.67;102450.63;5102132;28;20039;-72
2021/07/18 01:11:50;;;;;;;0.10;0.10;;;;;;;24.08;56.48;102482.53;5106593;28;20034;-72
2021/07/18 01:14:16;;;;;;;0.10;0.10;;;;;;;24.08;56.78;102479.03;5107503;28;20041;-72
2021/07/18 01:16:42;;;;;;;0.25;0.25;;;;;;;24.07;56.74;102482.69;5106976;28;20408;-72
2021/07/18 01:19:09;;;;;;;0.10;0.10;;;;;;;23.86;56.61;102443.28;5105600;28;20028;-72
2021/07/18 01:21:36;;;;;;;0.10;0.10;;;;;;;24.01;56.46;102476.19;5105494;28;20039;-72
2021/07/18 01:24:03;;;;;;;0.10;0.10;;;;;;;24.05;56.79;102477.53;5107415;28;20431;-72
2021/07/18 01:26:29;;;;;;;0.10;0.10;;;;;;;23.98;56.42;102465.91;5105832;28;20115;-72
2021/07/18 01:28:55;;;;;;;0.10;0.10;;;;;;;24.00;56.57;102471.88;5102656;28;20035;-71
2021/07/18 01:31:21;;;;;;;0.05;0.05;;;;;;;24.03;56.85;102474.19;5109069;28;20122;-72
2021/07/18 01:33:46;;;;;;;0.10;0.10;;;;;;;24.03;56.65;102478.69;5108508;28;20126;-72
2021/07/18 01:36:12;;;;;;;0.10;0.10;;;;;;;24.01;56.69;102470.88;5088033;28;20032;-72
2021/07/18 01:38:37;;;;;;;0.10;0.10;;;;;;;23.91;56.69;102450.78;5105666;28;20112;-72
2021/07/18 01:41:03;;;;;;;0.13;0.13;;;;;;;24.01;56.65;102464.72;5104161;28;20063;-72
2021/07/18 01:43:28;;;;;;;0.10;0.10;;;;;;;24.01;56.63;102467.38;5089321;28;20048;-72
2021/07/18 01:45:54;;;;;;;0.20;0.20;;;;;;;23.89;56.71;102442.97;5087574;28;20038;-72
2021/07/18 01:48:20;;;;;;;0.20;0.20;;;;;;;24.00;56.82;102465.72;5106500;28;20036;-72
2021/07/18 01:50:46;;;;;;;0.17;0.17;;;;;;;23.99;56.67;102464.06;5107505;28;20443;-72
2021/07/18 01:53:11;;;;;;;0.20;0.20;;;;;;;23.71;56.77;102421.88;5088425;28;21007;-72
2021/07/18 01:55:37;;;;;;;0.10;0.10;;;;;;;23.98;56.77;102459.75;5102679;28;20035;-72
2021/07/18 01:58:03;;;;;;;0.20;0.20;;;;;;;23.98;56.68;102463.22;5106107;28;20047;-72
2021/07/18 02:00:29;;;;;;;0.20;0.20;;;;;;;23.89;56.80;102447.47;5107766;28;20502;-72
2021/07/18 02:02:54;;;;;;;0.10;0.10;;;;;;;23.98;56.72;102459.75;5082031;28;20101;-72
2021/07/18 02:05:21;;;;;;;0.10;0.10;;;;;;;23.99;56.77;102461.41;5087310;28;20104;-72
2021/07/18 02:07:49;;;;;;;0.30;0.20;;;;;;;23.97;56.94;102458.91;5105843;28;20038;-72
2021/07/18 02:10:16;;;;;;;0.20;0.20;;;;;;;23.97;56.76;102455.44;5104585;28;20070;-72
2021/07/18 02:12:46;;;;;;;0.20;0.20;;;;;;;23.95;56.89;102457.44;5104527;28;20035;-72
2021/07/18 02:15:15;;;;;;;0.08;0.08;;;;;;;23.95;56.73;102452.94;5104809;28;20039;-72
2021/07/18 02:17:40;;;;;;;0.08;0.08;;;;;;;23.92;56.73;102439.13;5105026;28;20040;-72
2021/07/18 02:20:10;;;;;;;0.10;0.10;;;;;;;23.85;56.89;102428.31;5106196;28;20381;-72
2021/07/18 02:22:43;;;;;;;0.40;0.40;;;;;;;23.93;56.71;102446.94;5104268;28;20027;-72
2021/07/18 02:25:09;;;;;;;0.05;0.05;;;;;;;23.88;56.66;102436.00;5104556;28;20050;-72
2021/07/18 02:27:35;;;;;;;0.10;0.10;;;;;;;23.81;56.75;102427.00;5100523;28;20044;-72
2021/07/18 02:30:00;;;;;;;0.38;0.20;;;;;;;23.91;56.88;102454.28;5105529;28;20034;-72
2021/07/18 02:32:26;;;;;;;0.50;0.13;;;;;;;23.91;56.99;102453.44;5106438;28;20485;-72
2021/07/18 02:34:51;;;;;;;0.20;0.10;;;;;;;23.89;56.91;102448.28;5105507;28;20046;-72
2021/07/18 02:37:17;;;;;;;0.20;0.20;;;;;;;23.84;56.90;102447.94;5088080;28;20035;-72
2021/07/18 02:39:42;;;;;;;0.25;0.25;;;;;;;23.88;56.91;102454.63;5106195;28;20031;-72
2021/07/18 02:42:08;;;;;;;0.10;0.10;;;;;;;23.76;56.90;102439.97;5103468;28;20399;-72
2021/07/18 02:44:34;;;;;;;0.10;0.10;;;;;;;23.72;56.80;102428.84;5105085;28;20082;-72
2021/07/18 02:46:59;;;;;;;0.25;0.25;;;;;;;23.90;56.97;102454.44;5105147;28;20156;-72
2021/07/18 02:49:25;;;;;;;0.10;0.10;;;;;;;23.84;56.76;102436.47;5086950;28;20038;-72
2021/07/18 02:51:50;;;;;;;0.10;0.10;;;;;;;23.88;56.79;102438.66;5102914;28;20055;-72
2021/07/18 02:54:16;;;;;;;0.10;0.10;;;;;;;23.75;56.96;102419.69;5087656;28;20358;-72
2021/07/18 02:56:41;;;;;;;0.10;0.10;;;;;;;23.76;56.94;102418.69;5105012;28;20564;-72
2021/07/18 02:59:07;;;;;;;0.10;0.10;;;;;;;23.86;56.79;102437.13;5084686;28;20370;-72
2021/07/18 03:01:33;;;;;;;0.10;0.10;;;;;;;23.74;56.82;102413.56;5104225;28;20385;-72
2021/07/18 03:03:58;;;;;;;0.20;0.20;;;;;;;23.72;56.99;102404.09;5087027;28;20435;-72
2021/07/18 03:06:24;;;;;;;0.20;0.20;;;;;;;23.84;56.92;102429.31;5087283;28;20061;-72
2021/07/18 03:08:49;;;;;;;0.00;0.00;;;;;;;23.84;57.00;102426.66;5105415;28;20035;-72
2021/07/18 03:11:15;;;;;;;0.13;0.13;;;;;;;23.84;56.98;102428.50;5104993;28;20051;-72
2021/07/18 03:13:40;;;;;;;0.08;0.00;;;;;;;23.65;56.97;102409.22;5105627;28;20028;-72
2021/07/18 03:16:06;;;;;;;0.20;0.20;;;;;;;23.79;56.97;102431.66;5105517;28;20088;-72
2021/07/18 03:18:31;;;;;;;0.10;0.10;;;;;;;23.81;57.26;102427.00;5087044;28;20035;-72
2021/07/18 03:20:57;;;;;;;0.22;0.22;;;;;;;23.81;56.97;102425.16;5097839;28;20040;-72
2021/07/18 03:23:23;;;;;;;0.20;0.20;;;;;;;23.82;57.06;102433.97;5099310;28;20478;-72
2021/07/18 03:25:48;;;;;;;0.10;0.10;;;;;;;23.78;57.04;102430.84;5105229;28;20043;-72
2021/07/18 03:28:14;;;;;;;0.20;0.20;;;;;;;23.80;56.85;102431.50;5104956;28;20068;-72
2021/07/18 03:30:39;;;;;;;0.20;0.20;;;;;;;23.69;56.94;102413.19;5105881;28;20092;-72
2021/07/18 03:33:05;;;;;;;0.20;0.20;;;;;;;23.67;57.16;102409.06;5102954;28;20043;-72
2021/07/18 03:35:31;;;;;;;0.10;0.10;;;;;;;23.78;57.02;102428.16;5104498;28;20310;-72
2021/07/18 03:37:56;;;;;;;0.17;0.17;;;;;;;23.67;57.05;102406.38;5085872;28;20023;-72
2021/07/18 03:40:22;;;;;;;0.08;0.00;;;;;;;23.76;57.22;102416.88;5086840;28;20562;-72
2021/07/18 03:42:48;;;;;;;0.20;0.20;;;;;;;23.77;57.01;102412.38;5103559;28;20035;-72
2021/07/18 03:45:14;;;;;;;0.10;0.10;;;;;;;23.71;57.08;102402.41;5103566;28;20031;-72
2021/07/18 03:47:42;;;;;;;0.10;0.10;;;;;;;23.69;57.13;102393.75;5104062;28;20028;-72
2021/07/18 03:50:09;;;;;;;0.20;0.20;;;;;;;23.77;57.09;102404.41;5103013;28;20036;-72
2021/07/18 03:52:35;;;;;;;0.20;0.20;;;;;;;23.76;56.93;102406.22;5095788;28;20446;-72
2021/07/18 03:55:01;;;;;;;0.28;0.20;;;;;;;23.69;57.28;102396.41;5094202;28;20040;-72
2021/07/18 03:57:26;;;;;;;0.00;0.00;;;;;;;23.75;57.02;102407.22;5104361;28;20039;-74
2021/07/18 03:59:52;;;;;;;0.20;0.20;;;;;;;23.69;57.20;102402.56;5105418;28;20039;-74
2021/07/18 04:02:18;;;;;;;0.10;0.10;;;;;;;23.75;57.22;102412.56;5096492;28;20493;-74
2021/07/18 04:04:43;;;;;;;0.10;0.10;;;;;;;23.75;56.97;102409.06;5103339;28;20027;-74
2021/07/18 04:07:09;;;;;;;0.00;0.00;;;;;;;23.74;57.10;102415.38;5081986;28;20487;-73
2021/07/18 04:09:34;;;;;;;0.00;0.00;;;;;;;23.74;57.20;102418.88;5104338;28;20441;-74
2021/07/18 04:12:00;;;;;;;0.15;0.15;;;;;;;23.74;57.14;102418.88;5104280;28;20043;-74
2021/07/18 04:14:25;;;;;;;0.00;0.00;;;;;;;23.74;57.11;102428.69;5104035;28;20050;-74
2021/07/18 04:16:51;;;;;;;0.13;0.13;;;;;;;23.75;56.98;102419.69;5085910;28;20035;-74
2021/07/18 04:19:16;;;;;;;0.10;0.10;;;;;;;23.61;56.86;102402.59;5102805;28;20062;-74
2021/07/18 04:21:42;;;;;;;0.20;0.20;;;;;;;23.72;57.06;102420.03;5102635;28;20558;-74
2021/07/18 04:24:07;;;;;;;0.10;0.10;;;;;;;23.52;57.20;102385.78;5101256;28;20036;-73
2021/07/18 04:26:33;;;;;;;0.00;0.00;;;;;;;23.68;57.10;102408.88;5099890;28;20798;-74
2021/07/18 04:28:58;;;;;;;0.17;0.17;;;;;;;23.61;57.05;102399.09;5104499;28;20050;-74
2021/07/18 04:31:24;;;;;;;0.10;0.10;;;;;;;23.70;57.05;102420.22;5084814;28;20106;-74
2021/07/18 04:33:50;;;;;;;0.10;0.10;;;;;;;23.70;57.38;102417.56;5103503;28;20035;-73
2021/07/18 04:36:17;;;;;;;0.20;0.20;;;;;;;23.65;57.04;102403.91;5103755;28;20524;-74
2021/07/18 04:38:42;;;;;;;0.10;0.10;;;;;;;23.59;56.93;102401.91;5107627;28;20217;-74
2021/07/18 04:41:08;;;;;;;0.10;0.10;;;;;;;23.71;56.97;102423.69;5070742;28;20108;-74
2021/07/18 04:43:35;;;;;;;0.05;0.05;;;;;;;23.59;57.23;102399.25;5105710;28;20891;-73
2021/07/18 04:46:00;;;;;;;0.10;0.10;;;;;;;23.62;57.01;102404.25;5107419;28;20366;-73
2021/07/18 04:48:26;;;;;;;0.10;0.10;;;;;;;23.65;57.19;102405.72;5087863;28;20034;-73
2021/07/18 04:50:51;;;;;;;0.00;0.00;;;;;;;23.64;57.17;102409.38;5107566;28;20074;-73
2021/07/18 04:53:17;;;;;;;0.00;0.00;;;;;;;23.55;57.04;102394.41;5108422;28;20039;-73
2021/07/18 04:55:42;;;;;;;0.05;0.05;;;;;;;23.57;57.02;102397.78;5073263;28;20035;-73
2021/07/18 04:58:08;;;;;;;0.10;0.10;;;;;;;23.43;57.07;102375.31;5107800;28;20054;-73
2021/07/18 05:00:34;;;;;;;0.10;0.10;;;;;;;23.53;57.07;102397.25;5089673;28;20087;-73
2021/07/18 05:03:00;;;;;;;0.10;0.10;;;;;;;23.68;57.01;102429.31;5106320;28;20114;-73
2021/07/18 05:05:25;;;;;;;0.10;0.10;;;;;;;23.56;57.14;102402.22;5106172;28;20093;-73
2021/07/18 05:07:56;;;;;;;0.00;0.00;;;;;;;23.58;57.19;102408.25;5107411;28;20043;-73
2021/07/18 05:10:24;;;;;;;0.10;0.10;;;;;;;23.60;57.30;102405.41;5106872;28;20043;-73
2021/07/18 05:12:52;;;;;;;0.10;0.10;;;;;;;23.67;57.24;102417.84;5107984;28;20076;-73
2021/07/18 05:15:18;;;;;;;0.17;0.17;;;;;;;23.57;57.19;102414.56;5107617;28;20031;-73
2021/07/18 05:17:44;;;;;;;0.10;0.10;;;;;;;23.66;57.19;102424.19;5104719;28;20074;-73
2021/07/18 05:20:11;;;;;;;0.17;0.17;;;;;;;23.63;57.28;102413.06;5090001;28;20055;-73
2021/07/18 05:22:37;;;;;;;0.13;0.10;;;;;;;23.65;56.97;102419.84;5107340;28;20031;-73
2021/07/18 05:25:05;;;;;;;0.10;0.10;;;;;;;23.65;57.16;102421.69;5098498;28;20112;-73
2021/07/18 05:27:31;;;;;;;0.10;0.10;;;;;;;23.63;57.19;102416.53;5105635;28;20035;-73
2021/07/18 05:29:57;;;;;;;0.08;0.08;;;;;;;23.60;57.42;102408.91;5107581;28;20043;-73
2021/07/18 05:32:23;;;;;;;0.10;0.10;;;;;;;23.57;56.94;102406.56;5106667;28;20529;-73
2021/07/18 05:34:48;;;;;;;0.10;0.10;;;;;;;23.55;57.14;102402.41;5106432;28;20031;-73
2021/07/18 05:37:15;;;;;;;0.10;0.10;;;;;;;23.34;57.10;102363.00;5087185;28;20035;-73
2021/07/18 05:39:40;;;;;;;0.10;0.10;;;;;;;23.54;57.14;102390.09;5107693;28;20776;-73
2021/07/18 05:42:06;;;;;;;0.05;0.05;;;;;;;23.50;57.06;102389.56;5106495;28;20048;-73
2021/07/18 05:44:32;;;;;;;0.00;0.00;;;;;;;23.65;57.46;102411.06;5107704;28;20048;-73
2021/07/18 05:46:57;;;;;;;0.10;0.10;;;;;;;23.56;56.98;102396.91;5105416;28;20073;-73
2021/07/18 05:49:23;;;;;;;0.00;0.00;;;;;;;23.65;57.03;102413.72;5105321;28;20086;-73
2021/07/18 05:51:49;;;;;;;0.10;0.10;;;;;;;23.64;57.51;102415.53;5106592;28;20043;-73
2021/07/18 05:54:14;;;;;;;0.03;0.03;;;;;;;23.65;57.16;102419.03;5095597;28;20028;-73
2021/07/18 05:56:40;;;;;;;0.10;0.10;;;;;;;23.46;57.05;102391.75;5101236;28;20445;-73
2021/07/18 05:59:06;;;;;;;0.00;0.00;;;;;;;23.65;57.11;102419.03;5089328;28;20044;-73
2021/07/18 06:01:31;;;;;;;0.10;0.10;;;;;;;23.65;57.24;102417.19;5104855;28;20035;-73
2021/07/18 06:03:57;;;;;;;0.00;0.00;;;;;;;23.55;57.28;102405.06;5087796;28;20092;-73
2021/07/18 06:06:22;;;;;;;0.00;0.00;;;;;;;23.55;57.33;102397.91;5105782;28;20104;-73
2021/07/18 06:08:48;;;;;;;0.00;0.00;;;;;;;23.65;57.20;102413.72;5106115;28;20019;-73
2021/07/18 06:11:15;;;;;;;0.00;0.00;;;;;;;23.65;57.17;102413.72;5088604;28;20039;-73
2021/07/18 06:13:40;;;;;;;0.10;0.10;;;;;;;23.56;57.28;102409.38;5099442;28;20267;-73
2021/07/18 06:16:07;;;;;;;0.00;0.00;;;;;;;23.62;57.01;102412.22;5107468;28;20396;-73
2021/07/18 06:18:34;;;;;;;0.10;0.10;;;;;;;23.52;57.21;102399.06;5104318;28;20035;-73
2021/07/18 06:21:00;;;;;;;0.00;0.00;;;;;;;23.58;57.25;102402.91;5105898;28;20028;-73
2021/07/18 06:23:26;;;;;;;0.10;0.10;;;;;;;23.62;57.37;102408.72;5085852;28;20042;-73
2021/07/18 06:25:52;;;;;;;0.22;0.10;;;;;;;23.59;57.15;102398.44;5107015;28;20040;-73
2021/07/18 06:28:17;;;;;;;0.10;0.10;;;;;;;23.67;57.32;102412.53;5106126;28;20028;-74
2021/07/18 06:30:43;;;;;;;0.08;0.08;;;;;;;23.55;57.43;102392.59;5103569;28;20084;-74
2021/07/18 06:33:08;;;;;;;0.20;0.20;;;;;;;23.69;57.09;102410.53;5104764;28;20047;-74
2021/07/18 06:35:34;;;;;;;0.20;0.20;;;;;;;23.70;57.37;102412.22;5102953;28;20035;-74
2021/07/18 06:38:00;;;;;;;0.20;0.10;;;;;;;23.64;57.17;102393.44;5085433;28;20027;-75
2021/07/18 06:40:26;;;;;;;0.00;0.00;;;;;;;23.61;57.11;102386.63;5104656;28;20138;-75
2021/07/18 06:42:52;;;;;;;0.10;0.10;;;;;;;23.69;57.07;102397.25;5088528;28;20147;-74
2021/07/18 06:45:18;;;;;;;0.10;0.10;;;;;;;23.69;57.02;102397.25;5101871;28;20113;-74
2021/07/18 06:47:43;;;;;;;0.10;0.10;;;;;;;23.73;57.05;102395.94;5085412;28;20074;-73
2021/07/18 06:50:10;;;;;;;0.00;0.00;;;;;;;23.74;57.17;102396.75;5102748;28;20537;-74
2021/07/18 06:52:35;;;;;;;0.00;0.00;;;;;;;23.72;57.08;102399.59;5100192;28;20085;-74
2021/07/18 06:55:01;;;;;;;0.00;0.00;;;;;;;23.60;57.09;102369.00;5099091;28;20660;-74
2021/07/18 06:57:26;;;;;;;0.00;0.00;;;;;;;23.78;57.14;102398.09;5104422;28;20015;-74
2021/07/18 06:59:52;;;;;;;0.40;0.20;;;;;;;23.88;56.93;102403.22;5103527;28;20027;-74
2021/07/18 07:02:17;;;;;;;0.00;0.00;;;;;;;23.90;57.03;102409.22;5103654;28;20051;-74
2021/07/18 07:04:43;;;;;;;0.10;0.10;;;;;;;23.81;56.74;102395.09;5104243;28;20038;-74
2021/07/18 07:07:09;;;;;;;0.10;0.10;;;;;;;23.95;56.87;102413.03;5104704;28;20044;-75
2021/07/18 07:09:35;;;;;;;0.10;0.10;;;;;;;23.98;56.86;102404.69;5105771;28;20404;-75
2021/07/18 07:12:01;;;;;;;0.00;0.00;;;;;;;23.93;56.72;102398.22;5086784;28;20050;-75
2021/07/18 07:14:26;;;;;;;0.05;0.05;;;;;;;23.98;56.71;102399.38;5102431;28;20146;-75
2021/07/18 07:16:52;;;;;;;0.10;0.10;;;;;;;24.03;56.62;102398.84;5084157;28;20043;-74
2021/07/18 07:19:18;;;;;;;0.00;0.00;;;;;;;24.01;56.81;102393.72;5084444;28;20101;-74
2021/07/18 07:21:43;;;;;;;0.10;0.10;;;;;;;24.11;56.73;102412.16;5103047;28;20035;-73
2021/07/18 07:24:09;;;;;;;0.30;0.10;;;;;;;24.00;56.56;102385.91;5087502;28;20378;-74
2021/07/18 07:26:35;;;;;;;0.17;0.10;;;;;;;24.20;57.11;102407.63;5102178;28;20032;-73
2021/07/18 07:29:02;;;;;;;0.00;0.00;;;;;;;24.22;56.67;102409.13;5094183;28;20051;-72
2021/07/18 07:31:28;;;;;;;0.10;0.10;;;;;;;24.23;56.61;102402.78;5096583;28;20039;-73
2021/07/18 07:33:54;;;;;;;0.00;0.00;;;;;;;24.26;56.62;102405.13;5104394;28;20031;-71
2021/07/18 07:36:20;;;;;;;0.00;0.00;;;;;;;24.29;56.65;102404.00;5103036;28;20039;-73
2021/07/18 07:38:46;;;;;;;0.00;0.00;;;;;;;24.32;56.67;102403.66;5103442;28;20028;-72
2021/07/18 07:41:12;;;;;;;0.00;0.00;;;;;;;24.33;56.54;102406.13;5102893;28;20118;-72
2021/07/18 07:43:37;;;;;;;0.00;0.00;;;;;;;24.34;56.39;102393.66;5101943;28;20046;-71
2021/07/18 07:46:03;;;;;;;0.10;0.10;;;;;;;24.38;56.40;102402.94;5106081;28;20548;-71
2021/07/18 07:48:29;;;;;;;0.10;0.10;;;;;;;24.35;56.29;102389.97;5098061;28;20388;-72
2021/07/18 07:50:57;;;;;;;0.00;0.00;;;;;;;24.41;56.34;102402.59;5098733;28;20487;-72
2021/07/18 07:53:24;;;;;;;0.00;0.00;;;;;;;24.38;56.24;102390.47;5097569;28;20032;-72
2021/07/18 07:55:49;;;;;;;0.00;0.00;;;;;;;24.40;56.32;102388.44;5102902;28;20366;-72
2021/07/18 07:58:15;;;;;;;0.08;0.08;;;;;;;24.33;56.27;102368.88;5089261;28;20061;-72
2021/07/18 08:00:41;;;;;;;0.00;0.00;;;;;;;24.34;56.20;102373.19;5105342;28;20062;-72
2021/07/18 08:03:07;;;;;;;0.00;0.00;;;;;;;24.41;56.24;102376.81;5102418;28;20039;-72
2021/07/18 08:05:32;;;;;;;0.20;0.20;;;;;;;24.39;56.23;102373.47;5101066;28;20044;-72
2021/07/18 08:07:58;;;;;;;0.00;0.00;;;;;;;24.54;56.34;102389.56;5097557;28;20038;-72
2021/07/18 08:10:25;;;;;;;0.10;0.10;;;;;;;24.57;56.33;102399.03;5085432;28;20390;-72
2021/07/18 08:12:51;;;;;;;0.10;0.10;;;;;;;24.38;56.21;102363.84;5093477;28;20057;-72
2021/07/18 08:15:18;;;;;;;0.00;0.00;;;;;;;24.51;56.35;102391.75;5108969;28;20103;-72
2021/07/18 08:17:44;;;;;;;0.00;0.00;;;;;;;24.62;56.00;102394.03;5087332;28;20043;-72
2021/07/18 08:20:14;;;;;;;0.00;0.00;;;;;;;24.62;56.11;102394.88;5102889;28;20043;-72
2021/07/18 08:22:40;;;;;;;0.10;0.10;;;;;;;24.62;56.13;102386.06;5103516;28;20452;-72
2021/07/18 08:25:06;;;;;;;0.05;0.05;;;;;;;24.62;55.98;102386.06;5101158;28;20035;-72
2021/07/18 08:27:32;;;;;;;0.10;0.10;;;;;;;24.62;55.90;102380.72;5111405;28;20043;-72
2021/07/18 08:29:58;;;;;;;0.00;0.00;;;;;;;24.59;56.07;102373.06;5107673;28;20328;-72
2021/07/18 08:32:23;;;;;;;0.00;0.00;;;;;;;24.56;55.79;102366.25;5110829;28;20473;-72
2021/07/18 08:34:50;;;;;;;0.00;0.00;;;;;;;24.70;56.03;102394.81;5092197;28;20968;-72
2021/07/18 08:37:15;;;;;;;0.00;0.00;;;;;;;24.66;55.92;102388.19;5098332;28;20067;-72
2021/07/18 08:39:41;;;;;;;0.00;0.00;;;;;;;24.74;56.13;102394.47;5105604;28;20035;-72
2021/07/18 08:42:07;;;;;;;0.10;0.10;;;;;;;24.71;55.74;102392.97;5101574;28;20063;-72
2021/07/18 08:44:33;;;;;;;0.00;0.00;;;;;;;24.76;55.84;102390.63;5104743;28;20036;-72
2021/07/18 08:47:00;;;;;;;0.05;0.05;;;;;;;24.66;56.06;102371.38;5093260;28;20046;-72
2021/07/18 08:49:25;;;;;;;0.10;0.10;;;;;;;24.79;55.96;102386.81;5098831;28;20027;-72
2021/07/18 08:51:53;;;;;;;0.10;0.10;;;;;;;24.74;56.07;102379.31;5094164;28;20511;-72
2021/07/18 08:54:19;;;;;;;0.00;0.00;;;;;;;24.80;55.97;102378.63;5111261;28;20039;-72
2021/07/18 08:56:47;;;;;;;0.10;0.10;;;;;;;24.65;56.08;102359.91;5098789;28;20028;-72
2021/07/18 08:59:14;;;;;;;0.00;0.00;;;;;;;24.70;55.90;102360.19;5110922;28;20031;-72
2021/07/18 09:01:42;;;;;;;0.00;0.00;;;;;;;24.84;56.09;102376.44;5103255;28;20474;-72
2021/07/18 09:04:08;;;;;;;0.00;0.00;;;;;;;24.84;55.91;102382.59;5108291;28;20024;-72
2021/07/18 09:06:52;;;;;;;0.08;0.08;;;;;;;24.68;55.83;102358.72;5111012;28;20516;-72
2021/07/18 09:09:20;;;;;;;0.00;0.00;;;;;;;24.86;56.08;102385.91;5103266;28;20474;-72
2021/07/18 09:11:57;;;;;;;0.08;0.08;;;;;;;24.67;55.93;102352.56;5103850;28;20027;-72
2021/07/18 09:14:22;;;;;;;0.20;0.17;;;;;;;24.87;55.85;102384.91;5107829;28;20050;-72
2021/07/18 09:16:50;;;;;;;0.10;0.10;;;;;;;24.87;55.95;102376.09;5107077;28;20545;-72
2021/07/18 09:19:26;;;;;;;0.00;0.00;;;;;;;24.88;56.12;102378.56;5082172;28;20440;-72
2021/07/18 09:21:57;;;;;;;0.00;0.00;;;;;;;24.88;56.02;102381.22;5108757;28;20035;-72
2021/07/18 09:24:28;;;;;;;0.10;0.10;;;;;;;24.75;56.01;102357.00;5101794;28;20185;-72
2021/07/18 09:27:08;;;;;;;0.00;0.00;;;;;;;24.64;55.95;102334.25;5100420;28;20035;-72
2021/07/18 09:29:35;;;;;;;0.10;0.10;;;;;;;24.91;55.88;102372.06;5108390;28;20027;-72
2021/07/18 09:32:14;;;;;;;0.00;0.00;;;;;;;24.84;55.96;102363.13;5105348;28;20036;-72
2021/07/18 09:34:43;;;;;;;0.00;0.00;;;;;;;24.88;55.94;102364.41;5099633;28;20035;-72
2021/07/18 09:37:19;;;;;;;0.10;0.10;;;;;;;24.91;55.94;102382.72;5106122;28;20035;-72
2021/07/18 09:40:10;;;;;;;0.00;0.00;;;;;;;24.83;55.96;102370.28;5099343;28;20040;-72
2021/07/18 09:42:44;;;;;;;0.00;0.00;;;;;;;24.92;55.86;102385.19;5094159;28;20095;-72
2021/07/18 09:45:15;;;;;;;0.00;0.00;;;;;;;24.93;55.88;102381.53;5105064;28;20573;-72
2021/07/18 09:48:00;;;;;;;0.00;0.00;;;;;;;24.93;55.94;102380.69;5105520;28;20058;-72
2021/07/18 09:50:31;;;;;;;0.00;0.00;;;;;;;24.93;55.78;102373.53;5106280;28;20048;-72
2021/07/18 09:53:19;;;;;;;0.10;0.10;;;;;;;24.91;55.86;102378.22;5097905;28;20601;-72
2021/07/18 09:56:17;;;;;;;0.10;0.10;;;;;;;24.92;55.70;102385.19;5104742;28;20027;-72
2021/07/18 09:58:54;;;;;;;0.00;0.00;;;;;;;24.92;55.97;102384.38;5094729;28;20035;-72
2021/07/18 10:01:21;;;;;;;0.10;0.10;;;;;;;24.92;56.08;102377.19;5103641;28;20477;-72
2021/07/18 10:03:51;;;;;;;0.00;0.00;;;;;;;24.93;55.84;102370.03;5107309;28;20039;-72
2021/07/18 10:06:19;;;;;;;0.00;0.00;;;;;;;24.93;55.97;102376.19;5104629;28;20057;-72
2021/07/18 10:08:48;;;;;;;0.00;0.00;;;;;;;24.90;56.13;102371.22;5107847;28;20035;-72
2021/07/18 10:11:17;;;;;;;0.00;0.00;;;;;;;24.93;56.04;102370.03;5106042;28;20051;-72
2021/07/18 10:13:44;;;;;;;0.10;0.10;;;;;;;24.95;55.84;102373.34;5107907;28;20042;-72
2021/07/18 10:16:11;;;;;;;0.00;0.00;;;;;;;24.93;55.87;102359.38;5089471;28;20473;-72
2021/07/18 10:18:39;;;;;;;0.00;0.00;;;;;;;24.93;55.98;102370.88;5089772;28;20064;-72
2021/07/18 10:21:06;;;;;;;0.00;0.00;;;;;;;24.93;56.02;102364.72;5104787;28;20126;-72
2021/07/18 10:23:38;;;;;;;0.10;0.10;;;;;;;24.92;56.10;102360.38;5104159;28;20472;-71
2021/07/18 10:26:05;;;;;;;0.00;0.00;;;;;;;24.91;56.08;102354.22;5099433;28;20046;-72
2021/07/18 10:28:31;;;;;;;0.03;0.03;;;;;;;24.84;55.91;102347.97;5103725;28;20070;-72
2021/07/18 10:31:06;;;;;;;0.00;0.00;;;;;;;24.77;56.07;102333.66;5095380;28;20044;-72
2021/07/18 10:33:34;;;;;;;0.00;0.00;;;;;;;24.65;56.08;102321.78;5084757;28;20126;-72
2021/07/18 10:36:01;;;;;;;0.00;0.00;;;;;;;24.90;55.89;102363.22;5075208;28;20549;-72
2021/07/18 10:38:27;;;;;;;0.00;0.00;;;;;;;24.90;55.78;102365.06;5095198;28;20036;-72
2021/07/18 10:40:55;;;;;;;0.00;0.00;;;;;;;24.90;55.95;102367.72;5086951;28;20059;-72
2021/07/18 10:43:38;;;;;;;0.00;0.00;;;;;;;24.90;56.03;102371.22;5090886;28;20046;-71
2021/07/18 10:46:09;;;;;;;0.00;0.00;;;;;;;24.88;56.22;102359.91;5088226;28;20488;-72
2021/07/18 10:48:47;;;;;;;0.05;0.05;;;;;;;24.88;56.28;102361.75;5089429;28;20032;-71
2021/07/18 10:51:18;;;;;;;0.10;0.10;;;;;;;24.83;55.99;102342.81;5106007;28;20035;-71
2021/07/18 10:53:45;;;;;;;0.00;0.00;;;;;;;24.88;56.20;102351.09;5107479;28;20039;-71
2021/07/18 10:56:16;;;;;;;0.00;0.00;;;;;;;24.89;56.13;102360.75;5089630;28;20394;-72
2021/07/18 10:58:42;;;;;;;0.10;0.10;;;;;;;24.89;56.14;102348.25;5096305;28;20398;-72
2021/07/18 11:01:11;;;;;;;0.00;0.00;;;;;;;24.90;56.22;102349.06;5100778;28;20027;-72
2021/07/18 11:03:44;;;;;;;0.00;0.00;;;;;;;24.90;55.98;102349.06;5100979;28;20038;-72
2021/07/18 11:06:30;;;;;;;0.00;0.00;;;;;;;24.83;55.96;102332.16;5096799;28;20051;-72
2021/07/18 11:09:22;;;;;;;0.00;0.00;;;;;;;24.90;56.09;102344.56;5104325;28;20054;-71
2021/07/18 11:11:55;;;;;;;0.00;0.00;;;;;;;24.90;56.19;102343.75;5094520;28;20146;-72
2021/07/18 11:14:36;;;;;;;0.00;0.00;;;;;;;24.89;56.02;102348.25;5098753;28;20074;-72
2021/07/18 11:17:23;;;;;;;0.00;0.00;;;;;;;24.89;56.06;102348.25;5094734;28;20040;-72
2021/07/18 11:20:04;;;;;;;0.10;0.10;;;;;;;24.81;56.18;102331.50;5106169;28;20472;-71
2021/07/18 11:23:08;;;;;;;0.00;0.00;;;;;;;24.90;56.08;102336.59;5093271;28;20154;-72
2021/07/18 11:25:47;;;;;;;0.00;0.00;;;;;;;24.89;56.09;102344.75;5093568;28;20050;-72